NCAR-RAP Real-Time Weather Data

Output produced by METARs form (08 May 2021  16:36 UTC)
found at http://weather.rap.ucar.edu/surface/
 
KBIH 081556Z AUTO 01016G23KT 10SM CLR 17/M09 A3012 RMK AO2 SLP161 T01721094
KBIH 081456Z AUTO 36017G23KT 10SM CLR 15/M10 A3012 RMK AO2 SLP159 T01501100 51018
KBIH 081356Z AUTO 35015KT 10SM CLR 13/M10 A3011 RMK AO2 SLP155 T01281100
KBIH 081256Z AUTO 36014KT 10SM CLR 12/M11 A3008 RMK AO2 SLP143 T01171106
KBIH 081156Z AUTO 36018G25KT 10SM CLR 13/M11 A3006 RMK AO2 PK WND 35026/1117 SLP135 T01281106 10183 20128 51021
KBIH 081056Z AUTO 36020G25KT 10SM CLR 13/M10 A3004 RMK AO2 PK WND 36026/1023 SLP127 T01331100
KBIH 080956Z AUTO 36017G23KT 10SM CLR 14/M09 A3001 RMK AO2 PK WND 01027/0901 SLP116 T01441089
KBIH 080856Z AUTO 36020G26KT 10SM CLR 16/M07 A2999 RMK AO2 PK WND 36026/0841 SLP107 T01561072 51009
KBIH 080756Z AUTO 36011KT 10SM CLR 16/M06 A2999 RMK AO2 SLP108 T01561056 403000117
KBIH 080656Z AUTO 36011KT 10SM CLR 16/M06 A2998 RMK AO2 SLP105 T01611061
KBIH 080556Z AUTO 35012KT 10SM CLR 18/M06 A2996 RMK AO2 SLP097 T01831061 10294 20183 51028
KBIH 080456Z AUTO 34014KT 10SM CLR 20/M03 A2993 RMK AO2 SLP088 T02001033
KBIH 080356Z AUTO 36013KT 10SM CLR 21/M03 A2990 RMK AO2 SLP078 T02061028